sensor_id;sensor_type;location;lat;lon;timestamp;P1;durP1;ratioP1;P2;durP2;ratioP2
7573;SDS011;3828;48.922;9.116;2022-08-03T00:00:56;5.00;;;3.00;;
7573;SDS011;3828;48.922;9.116;2022-08-03T00:03:22;5.27;;;3.67;;
7573;SDS011;3828;48.922;9.116;2022-08-03T00:05:49;3.40;;;3.10;;
7573;SDS011;3828;48.922;9.116;2022-08-03T00:08:16;3.83;;;3.10;;
7573;SDS011;3828;48.922;9.116;2022-08-03T00:10:43;3.00;;;2.80;;
7573;SDS011;3828;48.922;9.116;2022-08-03T00:13:10;2.87;;;2.60;;
7573;SDS011;3828;48.922;9.116;2022-08-03T00:15:37;3.20;;;3.00;;
7573;SDS011;3828;48.922;9.116;2022-08-03T00:18:06;3.00;;;2.43;;
7573;SDS011;3828;48.922;9.116;2022-08-03T00:20:34;3.23;;;2.93;;
7573;SDS011;3828;48.922;9.116;2022-08-03T00:23:01;3.57;;;3.27;;
7573;SDS011;3828;48.922;9.116;2022-08-03T00:25:29;3.67;;;3.10;;
7573;SDS011;3828;48.922;9.116;2022-08-03T00:27:55;5.83;;;3.30;;
7573;SDS011;3828;48.922;9.116;2022-08-03T00:30:22;4.87;;;3.30;;
7573;SDS011;3828;48.922;9.116;2022-08-03T00:32:49;3.00;;;2.57;;
7573;SDS011;3828;48.922;9.116;2022-08-03T00:35:17;3.33;;;2.90;;
7573;SDS011;3828;48.922;9.116;2022-08-03T00:37:44;4.00;;;3.23;;
7573;SDS011;3828;48.922;9.116;2022-08-03T00:40:11;2.80;;;2.30;;
7573;SDS011;3828;48.922;9.116;2022-08-03T00:42:49;2.80;;;2.60;;
7573;SDS011;3828;48.922;9.116;2022-08-03T00:45:19;3.63;;;2.87;;
7573;SDS011;3828;48.922;9.116;2022-08-03T00:47:47;2.70;;;2.50;;
7573;SDS011;3828;48.922;9.116;2022-08-03T00:50:14;4.17;;;2.93;;
7573;SDS011;3828;48.922;9.116;2022-08-03T00:52:43;3.13;;;2.83;;
7573;SDS011;3828;48.922;9.116;2022-08-03T00:55:10;3.00;;;2.80;;
7573;SDS011;3828;48.922;9.116;2022-08-03T00:57:38;3.27;;;2.47;;
7573;SDS011;3828;48.922;9.116;2022-08-03T01:00:06;3.40;;;2.97;;
7573;SDS011;3828;48.922;9.116;2022-08-03T01:02:34;3.30;;;3.00;;
7573;SDS011;3828;48.922;9.116;2022-08-03T01:05:01;2.90;;;2.70;;
7573;SDS011;3828;48.922;9.116;2022-08-03T01:07:32;4.20;;;2.67;;
7573;SDS011;3828;48.922;9.116;2022-08-03T01:10:12;3.37;;;2.80;;
7573;SDS011;3828;48.922;9.116;2022-08-03T01:12:47;3.17;;;2.83;;
7573;SDS011;3828;48.922;9.116;2022-08-03T01:15:24;3.30;;;3.00;;
7573;SDS011;3828;48.922;9.116;2022-08-03T01:17:54;3.50;;;3.10;;
7573;SDS011;3828;48.922;9.116;2022-08-03T01:20:25;2.90;;;2.70;;
7573;SDS011;3828;48.922;9.116;2022-08-03T01:26:19;3.63;;;3.33;;
7573;SDS011;3828;48.922;9.116;2022-08-03T01:29:08;3.87;;;3.03;;
7573;SDS011;3828;48.922;9.116;2022-08-03T01:31:47;5.40;;;3.13;;
7573;SDS011;3828;48.922;9.116;2022-08-03T01:34:18;3.27;;;2.57;;
7573;SDS011;3828;48.922;9.116;2022-08-03T01:36:48;3.63;;;2.90;;
7573;SDS011;3828;48.922;9.116;2022-08-03T01:39:18;3.10;;;2.90;;
7573;SDS011;3828;48.922;9.116;2022-08-03T01:41:47;3.37;;;3.10;;
7573;SDS011;3828;48.922;9.116;2022-08-03T01:44:16;4.50;;;3.43;;
7573;SDS011;3828;48.922;9.116;2022-08-03T01:46:43;3.50;;;3.27;;
7573;SDS011;3828;48.922;9.116;2022-08-03T01:49:13;3.57;;;3.27;;
7573;SDS011;3828;48.922;9.116;2022-08-03T01:51:42;3.67;;;3.37;;
7573;SDS011;3828;48.922;9.116;2022-08-03T01:54:12;5.20;;;3.17;;
7573;SDS011;3828;48.922;9.116;2022-08-03T01:56:40;3.70;;;3.10;;
7573;SDS011;3828;48.922;9.116;2022-08-03T01:59:09;3.10;;;2.80;;
7573;SDS011;3828;48.922;9.116;2022-08-03T02:01:39;4.60;;;3.13;;
7573;SDS011;3828;48.922;9.116;2022-08-03T02:04:10;3.37;;;2.90;;
7573;SDS011;3828;48.922;9.116;2022-08-03T02:06:39;3.73;;;3.17;;
7573;SDS011;3828;48.922;9.116;2022-08-03T02:09:07;3.57;;;3.27;;
7573;SDS011;3828;48.922;9.116;2022-08-03T02:11:34;3.07;;;2.77;;
7573;SDS011;3828;48.922;9.116;2022-08-03T02:14:03;3.40;;;3.10;;
7573;SDS011;3828;48.922;9.116;2022-08-03T02:16:31;3.87;;;3.53;;
7573;SDS011;3828;48.922;9.116;2022-08-03T02:19:00;3.40;;;3.20;;
7573;SDS011;3828;48.922;9.116;2022-08-03T02:21:30;4.13;;;3.00;;
7573;SDS011;3828;48.922;9.116;2022-08-03T02:24:00;3.37;;;3.07;;
7573;SDS011;3828;48.922;9.116;2022-08-03T02:26:28;3.10;;;2.90;;
7573;SDS011;3828;48.922;9.116;2022-08-03T02:28:56;4.03;;;3.63;;
7573;SDS011;3828;48.922;9.116;2022-08-03T02:31:28;3.60;;;3.30;;
7573;SDS011;3828;48.922;9.116;2022-08-03T02:34:00;4.27;;;3.50;;
7573;SDS011;3828;48.922;9.116;2022-08-03T02:36:31;3.37;;;3.07;;
7573;SDS011;3828;48.922;9.116;2022-08-03T02:39:03;3.10;;;2.90;;
7573;SDS011;3828;48.922;9.116;2022-08-03T02:41:31;3.33;;;3.13;;
7573;SDS011;3828;48.922;9.116;2022-08-03T02:44:03;3.27;;;3.07;;
7573;SDS011;3828;48.922;9.116;2022-08-03T02:46:35;3.60;;;3.30;;
7573;SDS011;3828;48.922;9.116;2022-08-03T02:49:04;3.57;;;3.27;;
7573;SDS011;3828;48.922;9.116;2022-08-03T02:51:34;3.60;;;3.20;;
7573;SDS011;3828;48.922;9.116;2022-08-03T02:54:02;3.03;;;2.83;;
7573;SDS011;3828;48.922;9.116;2022-08-03T02:56:30;3.70;;;3.40;;
7573;SDS011;3828;48.922;9.116;2022-08-03T02:58:59;3.50;;;3.20;;
7573;SDS011;3828;48.922;9.116;2022-08-03T03:01:27;3.87;;;3.30;;
7573;SDS011;3828;48.922;9.116;2022-08-03T03:03:55;3.40;;;3.00;;
7573;SDS011;3828;48.922;9.116;2022-08-03T03:06:23;5.87;;;3.77;;
7573;SDS011;3828;48.922;9.116;2022-08-03T03:08:52;5.80;;;3.90;;
7573;SDS011;3828;48.922;9.116;2022-08-03T03:11:20;4.67;;;4.07;;
7573;SDS011;3828;48.922;9.116;2022-08-03T03:13:48;3.80;;;3.60;;
7573;SDS011;3828;48.922;9.116;2022-08-03T03:16:16;3.53;;;3.23;;
7573;SDS011;3828;48.922;9.116;2022-08-03T03:18:44;3.30;;;3.10;;
7573;SDS011;3828;48.922;9.116;2022-08-03T03:21:15;4.30;;;3.90;;
7573;SDS011;3828;48.922;9.116;2022-08-03T03:23:43;5.20;;;4.80;;
7573;SDS011;3828;48.922;9.116;2022-08-03T03:26:12;4.20;;;3.90;;
7573;SDS011;3828;48.922;9.116;2022-08-03T03:28:40;3.80;;;3.50;;
7573;SDS011;3828;48.922;9.116;2022-08-03T03:31:08;4.00;;;3.60;;
7573;SDS011;3828;48.922;9.116;2022-08-03T03:33:35;4.57;;;3.90;;
7573;SDS011;3828;48.922;9.116;2022-08-03T03:36:03;3.90;;;3.43;;
7573;SDS011;3828;48.922;9.116;2022-08-03T03:38:31;4.63;;;4.23;;
7573;SDS011;3828;48.922;9.116;2022-08-03T03:40:59;4.33;;;3.97;;
7573;SDS011;3828;48.922;9.116;2022-08-03T03:43:27;3.40;;;3.10;;
7573;SDS011;3828;48.922;9.116;2022-08-03T03:45:54;5.97;;;4.27;;
7573;SDS011;3828;48.922;9.116;2022-08-03T03:48:23;5.10;;;3.63;;
7573;SDS011;3828;48.922;9.116;2022-08-03T03:50:50;3.90;;;3.60;;
7573;SDS011;3828;48.922;9.116;2022-08-03T03:53:17;3.67;;;3.37;;
7573;SDS011;3828;48.922;9.116;2022-08-03T03:55:44;5.67;;;4.57;;
7573;SDS011;3828;48.922;9.116;2022-08-03T03:58:11;4.13;;;3.83;;
7573;SDS011;3828;48.922;9.116;2022-08-03T04:00:39;4.07;;;3.77;;
7573;SDS011;3828;48.922;9.116;2022-08-03T04:03:09;3.80;;;3.50;;
7573;SDS011;3828;48.922;9.116;2022-08-03T04:05:37;4.33;;;3.90;;
7573;SDS011;3828;48.922;9.116;2022-08-03T04:08:23;3.97;;;3.57;;
7573;SDS011;3828;48.922;9.116;2022-08-03T04:11:10;4.27;;;3.87;;
7573;SDS011;3828;48.922;9.116;2022-08-03T04:13:42;3.87;;;3.47;;
7573;SDS011;3828;48.922;9.116;2022-08-03T04:16:15;3.80;;;3.50;;
7573;SDS011;3828;48.922;9.116;2022-08-03T04:18:46;4.43;;;4.03;;
7573;SDS011;3828;48.922;9.116;2022-08-03T04:21:18;3.77;;;3.37;;
7573;SDS011;3828;48.922;9.116;2022-08-03T04:23:49;4.10;;;3.80;;
7573;SDS011;3828;48.922;9.116;2022-08-03T04:26:21;4.23;;;3.93;;
7573;SDS011;3828;48.922;9.116;2022-08-03T04:28:52;4.03;;;3.73;;
7573;SDS011;3828;48.922;9.116;2022-08-03T04:31:21;4.03;;;3.67;;
7573;SDS011;3828;48.922;9.116;2022-08-03T04:33:50;5.50;;;4.20;;
7573;SDS011;3828;48.922;9.116;2022-08-03T04:36:19;4.07;;;3.77;;
7573;SDS011;3828;48.922;9.116;2022-08-03T04:38:52;4.87;;;4.23;;
7573;SDS011;3828;48.922;9.116;2022-08-03T04:41:23;5.50;;;3.80;;
7573;SDS011;3828;48.922;9.116;2022-08-03T04:43:53;4.20;;;3.80;;
7573;SDS011;3828;48.922;9.116;2022-08-03T04:46:23;10.87;;;7.63;;
7573;SDS011;3828;48.922;9.116;2022-08-03T04:48:54;6.23;;;4.93;;
7573;SDS011;3828;48.922;9.116;2022-08-03T04:51:22;6.30;;;4.20;;
7573;SDS011;3828;48.922;9.116;2022-08-03T04:53:49;5.67;;;3.97;;
7573;SDS011;3828;48.922;9.116;2022-08-03T04:56:15;4.83;;;4.37;;
7573;SDS011;3828;48.922;9.116;2022-08-03T04:58:42;4.67;;;4.20;;
7573;SDS011;3828;48.922;9.116;2022-08-03T05:01:09;5.60;;;4.20;;
7573;SDS011;3828;48.922;9.116;2022-08-03T05:03:37;4.03;;;3.70;;
7573;SDS011;3828;48.922;9.116;2022-08-03T05:06:04;3.97;;;3.67;;
7573;SDS011;3828;48.922;9.116;2022-08-03T05:08:31;4.53;;;4.07;;
7573;SDS011;3828;48.922;9.116;2022-08-03T05:10:58;5.53;;;5.03;;
7573;SDS011;3828;48.922;9.116;2022-08-03T05:13:24;5.07;;;4.20;;
7573;SDS011;3828;48.922;9.116;2022-08-03T05:15:51;5.77;;;4.27;;
7573;SDS011;3828;48.922;9.116;2022-08-03T05:18:18;5.17;;;3.57;;
7573;SDS011;3828;48.922;9.116;2022-08-03T05:20:46;4.03;;;3.73;;
7573;SDS011;3828;48.922;9.116;2022-08-03T05:23:13;3.87;;;3.57;;
7573;SDS011;3828;48.922;9.116;2022-08-03T05:25:40;4.17;;;3.77;;
7573;SDS011;3828;48.922;9.116;2022-08-03T05:28:07;5.10;;;4.60;;
7573;SDS011;3828;48.922;9.116;2022-08-03T05:30:33;3.87;;;3.57;;
7573;SDS011;3828;48.922;9.116;2022-08-03T05:33:01;5.57;;;4.20;;
7573;SDS011;3828;48.922;9.116;2022-08-03T05:35:29;5.03;;;4.53;;
7573;SDS011;3828;48.922;9.116;2022-08-03T05:37:57;6.67;;;4.37;;
7573;SDS011;3828;48.922;9.116;2022-08-03T05:40:24;11.03;;;4.83;;
7573;SDS011;3828;48.922;9.116;2022-08-03T05:42:51;4.43;;;4.03;;
7573;SDS011;3828;48.922;9.116;2022-08-03T05:45:18;5.83;;;4.93;;
7573;SDS011;3828;48.922;9.116;2022-08-03T05:47:44;7.77;;;4.80;;
7573;SDS011;3828;48.922;9.116;2022-08-03T05:50:12;4.80;;;4.33;;
7573;SDS011;3828;48.922;9.116;2022-08-03T05:52:39;6.97;;;4.13;;
7573;SDS011;3828;48.922;9.116;2022-08-03T05:55:09;4.37;;;3.97;;
7573;SDS011;3828;48.922;9.116;2022-08-03T05:57:38;3.87;;;3.57;;
7573;SDS011;3828;48.922;9.116;2022-08-03T06:00:05;7.70;;;4.20;;
7573;SDS011;3828;48.922;9.116;2022-08-03T06:02:34;6.07;;;4.50;;
7573;SDS011;3828;48.922;9.116;2022-08-03T06:05:01;9.70;;;4.93;;
7573;SDS011;3828;48.922;9.116;2022-08-03T06:07:29;5.10;;;4.03;;
7573;SDS011;3828;48.922;9.116;2022-08-03T06:09:56;8.57;;;4.40;;
7573;SDS011;3828;48.922;9.116;2022-08-03T06:12:25;5.43;;;4.27;;
7573;SDS011;3828;48.922;9.116;2022-08-03T06:14:52;4.60;;;4.13;;
7573;SDS011;3828;48.922;9.116;2022-08-03T06:17:19;4.13;;;3.77;;
7573;SDS011;3828;48.922;9.116;2022-08-03T06:19:46;4.40;;;3.83;;
7573;SDS011;3828;48.922;9.116;2022-08-03T06:22:13;5.07;;;4.67;;
7573;SDS011;3828;48.922;9.116;2022-08-03T06:24:40;3.97;;;3.57;;
7573;SDS011;3828;48.922;9.116;2022-08-03T06:27:08;4.87;;;4.47;;
7573;SDS011;3828;48.922;9.116;2022-08-03T06:29:37;5.60;;;4.63;;
7573;SDS011;3828;48.922;9.116;2022-08-03T06:32:04;5.77;;;4.27;;
7573;SDS011;3828;48.922;9.116;2022-08-03T06:34:31;4.57;;;4.17;;
7573;SDS011;3828;48.922;9.116;2022-08-03T06:36:58;5.10;;;4.60;;
7573;SDS011;3828;48.922;9.116;2022-08-03T06:39:25;7.83;;;3.73;;
7573;SDS011;3828;48.922;9.116;2022-08-03T06:41:52;4.93;;;4.00;;
7573;SDS011;3828;48.922;9.116;2022-08-03T06:44:19;5.17;;;3.80;;
7573;SDS011;3828;48.922;9.116;2022-08-03T06:46:48;3.87;;;3.57;;
7573;SDS011;3828;48.922;9.116;2022-08-03T06:49:15;4.20;;;3.17;;
7573;SDS011;3828;48.922;9.116;2022-08-03T06:51:41;6.33;;;3.60;;
7573;SDS011;3828;48.922;9.116;2022-08-03T06:54:08;4.13;;;3.43;;
7573;SDS011;3828;48.922;9.116;2022-08-03T06:56:36;4.70;;;3.70;;
7573;SDS011;3828;48.922;9.116;2022-08-03T06:59:03;4.07;;;3.07;;
7573;SDS011;3828;48.922;9.116;2022-08-03T07:01:30;3.57;;;3.37;;
7573;SDS011;3828;48.922;9.116;2022-08-03T07:03:58;4.17;;;3.07;;
7573;SDS011;3828;48.922;9.116;2022-08-03T07:06:25;3.17;;;2.70;;
7573;SDS011;3828;48.922;9.116;2022-08-03T07:08:52;4.37;;;3.03;;
7573;SDS011;3828;48.922;9.116;2022-08-03T07:11:19;4.87;;;2.60;;
7573;SDS011;3828;48.922;9.116;2022-08-03T07:13:45;2.97;;;2.77;;
7573;SDS011;3828;48.922;9.116;2022-08-03T07:16:12;4.10;;;3.13;;
7573;SDS011;3828;48.922;9.116;2022-08-03T07:18:39;2.80;;;2.60;;
7573;SDS011;3828;48.922;9.116;2022-08-03T07:21:07;3.93;;;2.60;;
7573;SDS011;3828;48.922;9.116;2022-08-03T07:23:35;4.00;;;2.70;;
7573;SDS011;3828;48.922;9.116;2022-08-03T07:26:01;2.90;;;2.67;;
7573;SDS011;3828;48.922;9.116;2022-08-03T07:28:28;2.87;;;2.67;;
7573;SDS011;3828;48.922;9.116;2022-08-03T07:30:55;6.10;;;3.40;;
7573;SDS011;3828;48.922;9.116;2022-08-03T07:33:23;3.93;;;3.37;;
7573;SDS011;3828;48.922;9.116;2022-08-03T07:35:50;3.40;;;3.10;;
7573;SDS011;3828;48.922;9.116;2022-08-03T07:38:18;4.77;;;2.63;;
7573;SDS011;3828;48.922;9.116;2022-08-03T07:40:45;3.37;;;2.50;;
7573;SDS011;3828;48.922;9.116;2022-08-03T07:43:12;4.60;;;2.93;;
7573;SDS011;3828;48.922;9.116;2022-08-03T07:45:38;4.07;;;2.50;;
7573;SDS011;3828;48.922;9.116;2022-08-03T07:48:05;6.20;;;2.53;;
7573;SDS011;3828;48.922;9.116;2022-08-03T07:50:32;3.23;;;2.63;;
7573;SDS011;3828;48.922;9.116;2022-08-03T07:53:00;5.23;;;2.47;;
7573;SDS011;3828;48.922;9.116;2022-08-03T07:55:28;4.03;;;2.47;;
7573;SDS011;3828;48.922;9.116;2022-08-03T07:57:59;4.63;;;2.70;;
7573;SDS011;3828;48.922;9.116;2022-08-03T08:00:30;1.83;;;1.73;;
7573;SDS011;3828;48.922;9.116;2022-08-03T08:02:57;2.47;;;2.03;;
7573;SDS011;3828;48.922;9.116;2022-08-03T08:05:23;1.97;;;1.80;;
7573;SDS011;3828;48.922;9.116;2022-08-03T08:07:51;3.27;;;1.77;;
7573;SDS011;3828;48.922;9.116;2022-08-03T08:10:18;2.30;;;1.93;;
7573;SDS011;3828;48.922;9.116;2022-08-03T08:12:46;2.93;;;2.10;;
7573;SDS011;3828;48.922;9.116;2022-08-03T08:15:14;1.50;;;1.40;;
7573;SDS011;3828;48.922;9.116;2022-08-03T08:17:42;2.40;;;2.10;;
7573;SDS011;3828;48.922;9.116;2022-08-03T08:20:10;1.93;;;1.70;;
7573;SDS011;3828;48.922;9.116;2022-08-03T08:22:40;2.20;;;1.83;;
7573;SDS011;3828;48.922;9.116;2022-08-03T08:25:07;2.40;;;1.87;;
7573;SDS011;3828;48.922;9.116;2022-08-03T08:27:39;2.97;;;1.60;;
7573;SDS011;3828;48.922;9.116;2022-08-03T08:30:10;2.23;;;1.73;;
7573;SDS011;3828;48.922;9.116;2022-08-03T08:32:39;1.83;;;1.73;;
7573;SDS011;3828;48.922;9.116;2022-08-03T08:35:07;2.00;;;1.70;;
7573;SDS011;3828;48.922;9.116;2022-08-03T08:37:34;2.60;;;1.50;;
7573;SDS011;3828;48.922;9.116;2022-08-03T08:40:02;3.03;;;2.10;;
7573;SDS011;3828;48.922;9.116;2022-08-03T08:42:30;1.57;;;1.47;;
7573;SDS011;3828;48.922;9.116;2022-08-03T08:44:57;1.50;;;1.27;;
7573;SDS011;3828;48.922;9.116;2022-08-03T08:47:29;3.17;;;1.20;;
7573;SDS011;3828;48.922;9.116;2022-08-03T08:49:57;1.43;;;1.33;;
7573;SDS011;3828;48.922;9.116;2022-08-03T08:52:25;1.40;;;1.30;;
7573;SDS011;3828;48.922;9.116;2022-08-03T08:54:55;1.43;;;1.27;;
7573;SDS011;3828;48.922;9.116;2022-08-03T08:57:24;2.90;;;1.43;;
7573;SDS011;3828;48.922;9.116;2022-08-03T08:59:54;2.20;;;1.73;;
7573;SDS011;3828;48.922;9.116;2022-08-03T09:02:21;1.33;;;1.23;;
7573;SDS011;3828;48.922;9.116;2022-08-03T09:04:50;1.33;;;1.23;;
7573;SDS011;3828;48.922;9.116;2022-08-03T09:07:18;1.10;;;1.00;;
7573;SDS011;3828;48.922;9.116;2022-08-03T09:09:44;1.20;;;1.10;;
7573;SDS011;3828;48.922;9.116;2022-08-03T09:12:12;1.10;;;1.00;;
7573;SDS011;3828;48.922;9.116;2022-08-03T09:14:39;3.40;;;1.30;;
7573;SDS011;3828;48.922;9.116;2022-08-03T09:17:06;0.83;;;0.83;;
7573;SDS011;3828;48.922;9.116;2022-08-03T09:19:33;1.13;;;1.10;;
7573;SDS011;3828;48.922;9.116;2022-08-03T09:22:09;1.27;;;1.00;;
7573;SDS011;3828;48.922;9.116;2022-08-03T09:24:37;1.30;;;1.20;;
7573;SDS011;3828;48.922;9.116;2022-08-03T09:27:18;1.10;;;1.10;;
7573;SDS011;3828;48.922;9.116;2022-08-03T09:29:46;0.97;;;0.90;;
7573;SDS011;3828;48.922;9.116;2022-08-03T09:32:13;1.20;;;1.10;;
7573;SDS011;3828;48.922;9.116;2022-08-03T09:34:40;0.97;;;0.80;;
7573;SDS011;3828;48.922;9.116;2022-08-03T09:37:13;1.27;;;1.17;;
7573;SDS011;3828;48.922;9.116;2022-08-03T09:39:40;1.20;;;0.90;;
7573;SDS011;3828;48.922;9.116;2022-08-03T09:42:08;2.43;;;1.03;;
7573;SDS011;3828;48.922;9.116;2022-08-03T09:44:38;0.80;;;0.77;;
7573;SDS011;3828;48.922;9.116;2022-08-03T09:47:07;2.07;;;1.30;;
7573;SDS011;3828;48.922;9.116;2022-08-03T09:49:35;1.50;;;1.30;;
7573;SDS011;3828;48.922;9.116;2022-08-03T09:52:10;1.07;;;0.93;;
7573;SDS011;3828;48.922;9.116;2022-08-03T09:54:40;1.33;;;1.23;;
7573;SDS011;3828;48.922;9.116;2022-08-03T09:57:08;1.13;;;1.10;;
7573;SDS011;3828;48.922;9.116;2022-08-03T09:59:47;1.00;;;0.80;;
7573;SDS011;3828;48.922;9.116;2022-08-03T10:02:20;1.53;;;1.10;;
7573;SDS011;3828;48.922;9.116;2022-08-03T10:04:49;1.20;;;1.10;;
7573;SDS011;3828;48.922;9.116;2022-08-03T10:07:19;1.70;;;0.93;;
7573;SDS011;3828;48.922;9.116;2022-08-03T10:09:52;2.30;;;1.37;;
7573;SDS011;3828;48.922;9.116;2022-08-03T10:12:20;2.23;;;1.20;;
7573;SDS011;3828;48.922;9.116;2022-08-03T10:14:47;1.30;;;1.23;;
7573;SDS011;3828;48.922;9.116;2022-08-03T10:17:14;1.23;;;1.20;;
7573;SDS011;3828;48.922;9.116;2022-08-03T10:19:41;1.43;;;1.17;;
7573;SDS011;3828;48.922;9.116;2022-08-03T10:22:09;1.10;;;0.97;;
7573;SDS011;3828;48.922;9.116;2022-08-03T10:24:44;1.00;;;0.90;;
7573;SDS011;3828;48.922;9.116;2022-08-03T10:27:15;2.23;;;1.10;;
7573;SDS011;3828;48.922;9.116;2022-08-03T10:29:46;1.23;;;1.00;;
7573;SDS011;3828;48.922;9.116;2022-08-03T10:32:20;1.20;;;1.10;;
7573;SDS011;3828;48.922;9.116;2022-08-03T10:34:51;2.63;;;1.27;;
7573;SDS011;3828;48.922;9.116;2022-08-03T10:37:23;1.30;;;1.00;;
7573;SDS011;3828;48.922;9.116;2022-08-03T10:39:55;1.53;;;1.20;;
7573;SDS011;3828;48.922;9.116;2022-08-03T10:42:25;1.63;;;1.30;;
7573;SDS011;3828;48.922;9.116;2022-08-03T10:44:57;1.17;;;1.17;;
7573;SDS011;3828;48.922;9.116;2022-08-03T10:47:29;2.38;;;1.48;;
7573;SDS011;3828;48.922;9.116;2022-08-03T10:49:56;1.30;;;1.20;;
7573;SDS011;3828;48.922;9.116;2022-08-03T10:52:24;1.70;;;1.52;;
7573;SDS011;3828;48.922;9.116;2022-08-03T10:54:51;1.35;;;1.25;;
7573;SDS011;3828;48.922;9.116;2022-08-03T11:00:23;1.33;;;1.25;;
7573;SDS011;3828;48.922;9.116;2022-08-03T11:03:07;1.50;;;1.40;;
7573;SDS011;3828;48.922;9.116;2022-08-03T11:05:40;1.25;;;1.15;;
7573;SDS011;3828;48.922;9.116;2022-08-03T11:11:00;1.65;;;1.55;;
7573;SDS011;3828;48.922;9.116;2022-08-03T11:13:30;1.17;;;1.15;;
7573;SDS011;3828;48.922;9.116;2022-08-03T11:16:00;1.63;;;1.52;;
7573;SDS011;3828;48.922;9.116;2022-08-03T11:18:28;1.20;;;1.13;;
7573;SDS011;3828;48.922;9.116;2022-08-03T11:20:55;1.30;;;1.20;;
7573;SDS011;3828;48.922;9.116;2022-08-03T11:23:42;1.40;;;1.02;;
7573;SDS011;3828;48.922;9.116;2022-08-03T11:26:11;2.67;;;1.20;;
7573;SDS011;3828;48.922;9.116;2022-08-03T11:28:42;1.33;;;1.23;;
7573;SDS011;3828;48.922;9.116;2022-08-03T11:34:12;1.58;;;1.17;;
7573;SDS011;3828;48.922;9.116;2022-08-03T11:39:46;1.60;;;1.38;;
7573;SDS011;3828;48.922;9.116;2022-08-03T11:45:09;1.95;;;1.48;;
7573;SDS011;3828;48.922;9.116;2022-08-03T11:47:37;1.10;;;1.00;;
7573;SDS011;3828;48.922;9.116;2022-08-03T11:50:05;1.27;;;1.17;;
7573;SDS011;3828;48.922;9.116;2022-08-03T11:52:33;1.50;;;1.20;;
7573;SDS011;3828;48.922;9.116;2022-08-03T11:55:02;1.67;;;1.20;;
7573;SDS011;3828;48.922;9.116;2022-08-03T11:57:37;1.17;;;1.17;;
7573;SDS011;3828;48.922;9.116;2022-08-03T12:00:24;1.23;;;1.13;;
7573;SDS011;3828;48.922;9.116;2022-08-03T12:02:57;2.05;;;1.30;;
7573;SDS011;3828;48.922;9.116;2022-08-03T12:05:33;1.30;;;1.25;;
7573;SDS011;3828;48.922;9.116;2022-08-03T12:08:04;1.23;;;1.23;;
7573;SDS011;3828;48.922;9.116;2022-08-03T12:10:32;1.42;;;1.33;;
7573;SDS011;3828;48.922;9.116;2022-08-03T12:12:59;1.45;;;1.08;;
7573;SDS011;3828;48.922;9.116;2022-08-03T12:15:31;4.25;;;1.85;;
7573;SDS011;3828;48.922;9.116;2022-08-03T12:17:59;1.35;;;1.30;;
7573;SDS011;3828;48.922;9.116;2022-08-03T12:20:27;2.35;;;1.33;;
7573;SDS011;3828;48.922;9.116;2022-08-03T12:23:00;1.40;;;1.30;;
7573;SDS011;3828;48.922;9.116;2022-08-03T12:25:28;1.50;;;1.40;;
7573;SDS011;3828;48.922;9.116;2022-08-03T12:28:04;1.40;;;1.30;;
7573;SDS011;3828;48.922;9.116;2022-08-03T12:30:37;1.13;;;1.13;;
7573;SDS011;3828;48.922;9.116;2022-08-03T12:33:12;1.45;;;1.35;;
7573;SDS011;3828;48.922;9.116;2022-08-03T12:35:44;1.50;;;1.40;;
7573;SDS011;3828;48.922;9.116;2022-08-03T12:38:11;1.13;;;1.05;;
7573;SDS011;3828;48.922;9.116;2022-08-03T12:40:38;1.30;;;1.20;;
7573;SDS011;3828;48.922;9.116;2022-08-03T12:43:12;1.40;;;1.23;;
7573;SDS011;3828;48.922;9.116;2022-08-03T12:45:40;1.38;;;1.30;;
7573;SDS011;3828;48.922;9.116;2022-08-03T12:48:07;2.35;;;1.33;;
7573;SDS011;3828;48.922;9.116;2022-08-03T12:50:36;1.05;;;1.05;;
7573;SDS011;3828;48.922;9.116;2022-08-03T12:53:04;1.50;;;1.40;;
7573;SDS011;3828;48.922;9.116;2022-08-03T12:55:32;1.63;;;1.50;;
7573;SDS011;3828;48.922;9.116;2022-08-03T12:58:00;1.40;;;1.13;;
7573;SDS011;3828;48.922;9.116;2022-08-03T13:00:28;1.67;;;1.20;;
7573;SDS011;3828;48.922;9.116;2022-08-03T13:03:00;1.38;;;1.17;;
7573;SDS011;3828;48.922;9.116;2022-08-03T13:05:28;1.50;;;1.40;;
7573;SDS011;3828;48.922;9.116;2022-08-03T13:07:55;1.40;;;1.30;;
7573;SDS011;3828;48.922;9.116;2022-08-03T13:10:27;1.23;;;1.13;;
7573;SDS011;3828;48.922;9.116;2022-08-03T13:12:55;2.00;;;1.20;;
7573;SDS011;3828;48.922;9.116;2022-08-03T13:15:24;1.27;;;1.23;;
7573;SDS011;3828;48.922;9.116;2022-08-03T13:17:52;2.35;;;1.27;;
7573;SDS011;3828;48.922;9.116;2022-08-03T13:20:20;1.40;;;1.30;;
7573;SDS011;3828;48.922;9.116;2022-08-03T13:22:47;2.30;;;1.30;;
7573;SDS011;3828;48.922;9.116;2022-08-03T13:25:14;1.27;;;1.23;;
7573;SDS011;3828;48.922;9.116;2022-08-03T13:27:41;1.73;;;1.20;;
7573;SDS011;3828;48.922;9.116;2022-08-03T13:30:08;1.65;;;1.38;;
7573;SDS011;3828;48.922;9.116;2022-08-03T13:32:35;1.15;;;1.15;;
7573;SDS011;3828;48.922;9.116;2022-08-03T13:35:03;1.30;;;1.20;;
7573;SDS011;3828;48.922;9.116;2022-08-03T13:37:32;1.52;;;1.15;;
7573;SDS011;3828;48.922;9.116;2022-08-03T13:39:59;1.95;;;1.40;;
7573;SDS011;3828;48.922;9.116;2022-08-03T13:42:28;2.00;;;1.40;;
7573;SDS011;3828;48.922;9.116;2022-08-03T13:44:55;1.95;;;1.35;;
7573;SDS011;3828;48.922;9.116;2022-08-03T13:47:22;1.23;;;1.13;;
7573;SDS011;3828;48.922;9.116;2022-08-03T13:49:49;1.50;;;1.40;;
7573;SDS011;3828;48.922;9.116;2022-08-03T13:52:17;1.63;;;1.50;;
7573;SDS011;3828;48.922;9.116;2022-08-03T13:54:45;2.90;;;1.40;;
7573;SDS011;3828;48.922;9.116;2022-08-03T13:57:12;1.45;;;1.35;;
7573;SDS011;3828;48.922;9.116;2022-08-03T13:59:39;1.50;;;1.30;;
7573;SDS011;3828;48.922;9.116;2022-08-03T14:02:05;1.10;;;1.00;;
7573;SDS011;3828;48.922;9.116;2022-08-03T14:04:32;1.63;;;1.45;;
7573;SDS011;3828;48.922;9.116;2022-08-03T14:06:59;1.40;;;1.30;;
7573;SDS011;3828;48.922;9.116;2022-08-03T14:09:26;1.35;;;1.10;;
7573;SDS011;3828;48.922;9.116;2022-08-03T14:11:54;1.15;;;1.10;;
7573;SDS011;3828;48.922;9.116;2022-08-03T14:14:21;1.20;;;1.10;;
7573;SDS011;3828;48.922;9.116;2022-08-03T14:16:47;1.45;;;1.23;;
7573;SDS011;3828;48.922;9.116;2022-08-03T14:19:14;1.15;;;1.10;;
7573;SDS011;3828;48.922;9.116;2022-08-03T14:21:41;1.30;;;1.20;;
7573;SDS011;3828;48.922;9.116;2022-08-03T14:24:08;1.35;;;1.27;;
7573;SDS011;3828;48.922;9.116;2022-08-03T14:26:34;1.40;;;1.30;;
7573;SDS011;3828;48.922;9.116;2022-08-03T14:29:02;2.15;;;1.40;;
7573;SDS011;3828;48.922;9.116;2022-08-03T14:31:29;1.90;;;1.40;;
7573;SDS011;3828;48.922;9.116;2022-08-03T14:33:56;2.72;;;1.45;;
7573;SDS011;3828;48.922;9.116;2022-08-03T14:36:23;1.48;;;1.38;;
7573;SDS011;3828;48.922;9.116;2022-08-03T14:38:50;1.40;;;1.30;;
7573;SDS011;3828;48.922;9.116;2022-08-03T14:41:17;1.45;;;1.35;;
7573;SDS011;3828;48.922;9.116;2022-08-03T14:43:44;1.88;;;1.42;;
7573;SDS011;3828;48.922;9.116;2022-08-03T14:46:12;2.03;;;1.13;;
7573;SDS011;3828;48.922;9.116;2022-08-03T14:48:41;1.40;;;1.30;;
7573;SDS011;3828;48.922;9.116;2022-08-03T14:51:08;1.65;;;1.55;;
7573;SDS011;3828;48.922;9.116;2022-08-03T14:53:35;4.10;;;1.90;;
7573;SDS011;3828;48.922;9.116;2022-08-03T14:56:02;2.08;;;1.55;;
7573;SDS011;3828;48.922;9.116;2022-08-03T14:58:28;3.17;;;1.25;;
7573;SDS011;3828;48.922;9.116;2022-08-03T15:00:56;1.60;;;1.50;;
7573;SDS011;3828;48.922;9.116;2022-08-03T15:03:24;3.67;;;1.45;;
7573;SDS011;3828;48.922;9.116;2022-08-03T15:05:51;1.40;;;1.30;;
7573;SDS011;3828;48.922;9.116;2022-08-03T15:08:19;1.40;;;1.30;;
7573;SDS011;3828;48.922;9.116;2022-08-03T15:10:47;1.98;;;1.17;;
7573;SDS011;3828;48.922;9.116;2022-08-03T15:13:14;1.30;;;1.20;;
7573;SDS011;3828;48.922;9.116;2022-08-03T15:15:41;1.52;;;1.20;;
7573;SDS011;3828;48.922;9.116;2022-08-03T15:18:08;1.75;;;1.23;;
7573;SDS011;3828;48.922;9.116;2022-08-03T15:20:36;2.10;;;1.42;;
7573;SDS011;3828;48.922;9.116;2022-08-03T15:23:03;2.28;;;1.48;;
7573;SDS011;3828;48.922;9.116;2022-08-03T15:25:30;1.50;;;1.40;;
7573;SDS011;3828;48.922;9.116;2022-08-03T15:27:56;1.95;;;1.55;;
7573;SDS011;3828;48.922;9.116;2022-08-03T15:30:23;1.65;;;1.55;;
7573;SDS011;3828;48.922;9.116;2022-08-03T15:32:50;1.50;;;1.40;;
7573;SDS011;3828;48.922;9.116;2022-08-03T15:35:17;2.35;;;1.60;;
7573;SDS011;3828;48.922;9.116;2022-08-03T15:37:45;1.67;;;1.58;;
7573;SDS011;3828;48.922;9.116;2022-08-03T15:40:12;3.20;;;1.80;;
7573;SDS011;3828;48.922;9.116;2022-08-03T15:42:38;1.63;;;1.20;;